sensor_id;sensor_type;location;lat;lon;timestamp;temperature;humidity
4643;DHT22;2334;48.710;9.622;2023-07-29T00:02:04;16.80;99.90
4643;DHT22;2334;48.710;9.622;2023-07-29T00:04:31;16.80;99.90
4643;DHT22;2334;48.710;9.622;2023-07-29T00:06:58;16.80;99.90
4643;DHT22;2334;48.710;9.622;2023-07-29T00:09:25;16.80;99.90
4643;DHT22;2334;48.710;9.622;2023-07-29T00:11:52;16.70;99.90
4643;DHT22;2334;48.710;9.622;2023-07-29T00:14:19;16.70;99.90
4643;DHT22;2334;48.710;9.622;2023-07-29T00:16:46;16.70;99.90
4643;DHT22;2334;48.710;9.622;2023-07-29T00:19:13;16.70;99.90
4643;DHT22;2334;48.710;9.622;2023-07-29T00:21:41;16.60;99.90
4643;DHT22;2334;48.710;9.622;2023-07-29T00:24:08;16.60;99.90
4643;DHT22;2334;48.710;9.622;2023-07-29T00:26:34;16.60;99.90
4643;DHT22;2334;48.710;9.622;2023-07-29T00:29:01;16.60;99.90
4643;DHT22;2334;48.710;9.622;2023-07-29T00:31:28;16.50;99.90
4643;DHT22;2334;48.710;9.622;2023-07-29T00:33:55;16.50;99.90
4643;DHT22;2334;48.710;9.622;2023-07-29T00:36:23;16.50;99.90
4643;DHT22;2334;48.710;9.622;2023-07-29T00:38:52;16.50;99.90
4643;DHT22;2334;48.710;9.622;2023-07-29T00:41:22;16.50;99.90
4643;DHT22;2334;48.710;9.622;2023-07-29T00:43:50;16.50;99.90
4643;DHT22;2334;48.710;9.622;2023-07-29T00:46:17;16.50;99.90
4643;DHT22;2334;48.710;9.622;2023-07-29T00:48:58;16.40;99.90
4643;DHT22;2334;48.710;9.622;2023-07-29T00:51:25;16.50;99.90
4643;DHT22;2334;48.710;9.622;2023-07-29T00:53:53;16.50;99.90
4643;DHT22;2334;48.710;9.622;2023-07-29T00:56:20;16.50;99.90
4643;DHT22;2334;48.710;9.622;2023-07-29T00:58:47;16.50;99.90
4643;DHT22;2334;48.710;9.622;2023-07-29T01:01:14;16.60;99.90
4643;DHT22;2334;48.710;9.622;2023-07-29T01:03:41;16.50;99.90
4643;DHT22;2334;48.710;9.622;2023-07-29T01:06:16;16.50;99.90
4643;DHT22;2334;48.710;9.622;2023-07-29T01:08:48;16.50;99.90
4643;DHT22;2334;48.710;9.622;2023-07-29T01:11:34;16.50;99.90
4643;DHT22;2334;48.710;9.622;2023-07-29T01:14:07;16.50;99.90
4643;DHT22;2334;48.710;9.622;2023-07-29T01:16:40;16.60;99.90
4643;DHT22;2334;48.710;9.622;2023-07-29T01:19:14;16.60;99.90
4643;DHT22;2334;48.710;9.622;2023-07-29T01:21:46;16.60;99.90
4643;DHT22;2334;48.710;9.622;2023-07-29T01:24:14;16.60;99.90
4643;DHT22;2334;48.710;9.622;2023-07-29T01:26:41;16.60;99.90
4643;DHT22;2334;48.710;9.622;2023-07-29T01:29:08;16.70;99.90
4643;DHT22;2334;48.710;9.622;2023-07-29T01:31:40;16.70;99.90
4643;DHT22;2334;48.710;9.622;2023-07-29T01:34:13;16.60;99.90
4643;DHT22;2334;48.710;9.622;2023-07-29T01:36:42;16.60;99.90
4643;DHT22;2334;48.710;9.622;2023-07-29T01:39:11;16.60;99.90
4643;DHT22;2334;48.710;9.622;2023-07-29T01:41:40;16.60;99.90
4643;DHT22;2334;48.710;9.622;2023-07-29T01:44:08;16.60;99.90
4643;DHT22;2334;48.710;9.622;2023-07-29T01:46:36;16.60;99.90
4643;DHT22;2334;48.710;9.622;2023-07-29T01:49:04;16.60;99.90
4643;DHT22;2334;48.710;9.622;2023-07-29T01:51:30;16.60;99.90
4643;DHT22;2334;48.710;9.622;2023-07-29T01:53:57;16.60;99.90
4643;DHT22;2334;48.710;9.622;2023-07-29T01:56:25;16.70;99.90
4643;DHT22;2334;48.710;9.622;2023-07-29T01:58:53;16.70;99.90
4643;DHT22;2334;48.710;9.622;2023-07-29T02:01:20;16.70;99.90
4643;DHT22;2334;48.710;9.622;2023-07-29T02:03:47;16.70;99.90
4643;DHT22;2334;48.710;9.622;2023-07-29T02:06:18;16.70;99.90
4643;DHT22;2334;48.710;9.622;2023-07-29T02:08:45;16.70;99.90
4643;DHT22;2334;48.710;9.622;2023-07-29T02:11:12;16.80;99.90
4643;DHT22;2334;48.710;9.622;2023-07-29T02:13:39;16.80;99.90
4643;DHT22;2334;48.710;9.622;2023-07-29T02:16:07;16.80;99.90
4643;DHT22;2334;48.710;9.622;2023-07-29T02:18:35;16.80;99.90
4643;DHT22;2334;48.710;9.622;2023-07-29T02:21:02;16.80;99.90
4643;DHT22;2334;48.710;9.622;2023-07-29T02:23:30;16.90;99.90
4643;DHT22;2334;48.710;9.622;2023-07-29T02:25:56;16.90;99.90
4643;DHT22;2334;48.710;9.622;2023-07-29T02:28:23;16.90;99.90
4643;DHT22;2334;48.710;9.622;2023-07-29T02:31:12;16.80;99.90
4643;DHT22;2334;48.710;9.622;2023-07-29T02:33:39;16.80;99.90
4643;DHT22;2334;48.710;9.622;2023-07-29T02:36:05;16.80;99.90
4643;DHT22;2334;48.710;9.622;2023-07-29T02:38:32;16.80;99.90
4643;DHT22;2334;48.710;9.622;2023-07-29T02:40:59;16.80;99.90
4643;DHT22;2334;48.710;9.622;2023-07-29T02:43:26;16.80;99.90
4643;DHT22;2334;48.710;9.622;2023-07-29T02:45:53;16.80;99.90
4643;DHT22;2334;48.710;9.622;2023-07-29T02:48:21;16.80;99.90
4643;DHT22;2334;48.710;9.622;2023-07-29T02:50:48;16.80;99.90
4643;DHT22;2334;48.710;9.622;2023-07-29T02:53:15;16.80;99.90
4643;DHT22;2334;48.710;9.622;2023-07-29T02:55:42;16.80;99.90
4643;DHT22;2334;48.710;9.622;2023-07-29T02:58:09;16.70;99.90
4643;DHT22;2334;48.710;9.622;2023-07-29T03:00:35;16.70;99.90
4643;DHT22;2334;48.710;9.622;2023-07-29T03:03:02;16.60;99.90
4643;DHT22;2334;48.710;9.622;2023-07-29T03:05:31;16.60;99.90
4643;DHT22;2334;48.710;9.622;2023-07-29T03:07:58;16.60;99.90
4643;DHT22;2334;48.710;9.622;2023-07-29T03:10:25;16.60;99.90
4643;DHT22;2334;48.710;9.622;2023-07-29T03:12:54;16.60;99.90
4643;DHT22;2334;48.710;9.622;2023-07-29T03:15:23;16.60;99.90
4643;DHT22;2334;48.710;9.622;2023-07-29T03:17:51;16.60;99.90
4643;DHT22;2334;48.710;9.622;2023-07-29T03:20:18;16.60;99.90
4643;DHT22;2334;48.710;9.622;2023-07-29T03:22:47;16.60;99.90
4643;DHT22;2334;48.710;9.622;2023-07-29T03:25:14;16.60;99.90
4643;DHT22;2334;48.710;9.622;2023-07-29T03:27:41;16.60;99.90
4643;DHT22;2334;48.710;9.622;2023-07-29T03:30:08;16.60;99.90
4643;DHT22;2334;48.710;9.622;2023-07-29T03:32:35;16.60;99.90
4643;DHT22;2334;48.710;9.622;2023-07-29T03:35:02;16.60;99.90
4643;DHT22;2334;48.710;9.622;2023-07-29T03:37:29;16.60;99.90
4643;DHT22;2334;48.710;9.622;2023-07-29T03:39:58;16.60;99.90
4643;DHT22;2334;48.710;9.622;2023-07-29T03:42:24;16.60;99.90
4643;DHT22;2334;48.710;9.622;2023-07-29T03:44:51;16.60;99.90
4643;DHT22;2334;48.710;9.622;2023-07-29T03:47:18;16.70;99.90
4643;DHT22;2334;48.710;9.622;2023-07-29T03:49:45;16.70;99.90
4643;DHT22;2334;48.710;9.622;2023-07-29T03:52:12;16.70;99.90
4643;DHT22;2334;48.710;9.622;2023-07-29T03:54:39;16.70;99.90
4643;DHT22;2334;48.710;9.622;2023-07-29T03:57:07;16.70;99.90
4643;DHT22;2334;48.710;9.622;2023-07-29T03:59:34;16.70;99.90
4643;DHT22;2334;48.710;9.622;2023-07-29T04:02:01;16.70;99.90
4643;DHT22;2334;48.710;9.622;2023-07-29T04:04:28;16.70;99.90
4643;DHT22;2334;48.710;9.622;2023-07-29T04:06:55;16.70;99.90
4643;DHT22;2334;48.710;9.622;2023-07-29T04:09:22;16.80;99.90
4643;DHT22;2334;48.710;9.622;2023-07-29T04:11:48;16.80;99.90
4643;DHT22;2334;48.710;9.622;2023-07-29T04:14:17;16.80;99.90
4643;DHT22;2334;48.710;9.622;2023-07-29T04:16:43;16.70;99.90
4643;DHT22;2334;48.710;9.622;2023-07-29T04:19:10;16.70;99.90
4643;DHT22;2334;48.710;9.622;2023-07-29T04:21:37;16.80;99.90
4643;DHT22;2334;48.710;9.622;2023-07-29T04:24:04;16.80;99.90
4643;DHT22;2334;48.710;9.622;2023-07-29T04:26:31;16.70;99.90
4643;DHT22;2334;48.710;9.622;2023-07-29T04:28:58;16.80;99.90
4643;DHT22;2334;48.710;9.622;2023-07-29T04:31:26;16.80;99.90
4643;DHT22;2334;48.710;9.622;2023-07-29T04:33:53;16.70;99.90
4643;DHT22;2334;48.710;9.622;2023-07-29T04:36:20;16.70;99.90
4643;DHT22;2334;48.710;9.622;2023-07-29T04:38:47;16.70;99.90
4643;DHT22;2334;48.710;9.622;2023-07-29T04:41:13;16.80;99.90
4643;DHT22;2334;48.710;9.622;2023-07-29T04:43:40;16.70;99.90
4643;DHT22;2334;48.710;9.622;2023-07-29T04:46:07;16.70;99.90
4643;DHT22;2334;48.710;9.622;2023-07-29T04:48:36;16.80;99.90
4643;DHT22;2334;48.710;9.622;2023-07-29T04:51:03;16.80;99.90
4643;DHT22;2334;48.710;9.622;2023-07-29T04:53:30;16.80;99.90
4643;DHT22;2334;48.710;9.622;2023-07-29T04:55:57;16.80;99.90
4643;DHT22;2334;48.710;9.622;2023-07-29T04:58:24;16.90;99.90
4643;DHT22;2334;48.710;9.622;2023-07-29T05:00:51;16.90;99.90
4643;DHT22;2334;48.710;9.622;2023-07-29T05:03:17;16.90;99.90
4643;DHT22;2334;48.710;9.622;2023-07-29T05:05:46;17.00;99.90
4643;DHT22;2334;48.710;9.622;2023-07-29T05:08:12;17.00;99.90
4643;DHT22;2334;48.710;9.622;2023-07-29T05:10:39;17.00;99.90
4643;DHT22;2334;48.710;9.622;2023-07-29T05:13:07;17.00;99.90
4643;DHT22;2334;48.710;9.622;2023-07-29T05:15:33;17.00;99.90
4643;DHT22;2334;48.710;9.622;2023-07-29T05:18:00;17.00;99.90
4643;DHT22;2334;48.710;9.622;2023-07-29T05:20:27;17.00;99.90
4643;DHT22;2334;48.710;9.622;2023-07-29T05:22:55;17.00;99.90
4643;DHT22;2334;48.710;9.622;2023-07-29T05:25:22;17.00;99.90
4643;DHT22;2334;48.710;9.622;2023-07-29T05:27:49;17.00;99.90
4643;DHT22;2334;48.710;9.622;2023-07-29T05:30:16;17.00;99.90
4643;DHT22;2334;48.710;9.622;2023-07-29T05:32:43;17.00;99.90
4643;DHT22;2334;48.710;9.622;2023-07-29T05:35:10;17.00;99.90
4643;DHT22;2334;48.710;9.622;2023-07-29T05:37:38;17.00;99.90
4643;DHT22;2334;48.710;9.622;2023-07-29T05:40:08;17.10;99.90
4643;DHT22;2334;48.710;9.622;2023-07-29T05:42:35;17.10;99.90
4643;DHT22;2334;48.710;9.622;2023-07-29T05:45:02;17.10;99.90
4643;DHT22;2334;48.710;9.622;2023-07-29T05:47:29;17.00;99.90
4643;DHT22;2334;48.710;9.622;2023-07-29T05:49:56;17.00;99.90
4643;DHT22;2334;48.710;9.622;2023-07-29T05:52:23;17.00;99.90
4643;DHT22;2334;48.710;9.622;2023-07-29T05:54:50;17.00;99.90
4643;DHT22;2334;48.710;9.622;2023-07-29T05:57:18;17.00;99.90
4643;DHT22;2334;48.710;9.622;2023-07-29T05:59:45;17.00;99.90
4643;DHT22;2334;48.710;9.622;2023-07-29T06:02:11;17.00;99.90
4643;DHT22;2334;48.710;9.622;2023-07-29T06:04:38;17.00;99.90
4643;DHT22;2334;48.710;9.622;2023-07-29T06:07:06;17.00;99.90
4643;DHT22;2334;48.710;9.622;2023-07-29T06:09:33;17.00;99.90
4643;DHT22;2334;48.710;9.622;2023-07-29T06:12:00;17.10;99.90
4643;DHT22;2334;48.710;9.622;2023-07-29T06:14:28;17.10;99.90
4643;DHT22;2334;48.710;9.622;2023-07-29T06:16:55;17.20;99.90
4643;DHT22;2334;48.710;9.622;2023-07-29T06:19:31;17.20;99.90
4643;DHT22;2334;48.710;9.622;2023-07-29T06:21:58;17.40;99.90
4643;DHT22;2334;48.710;9.622;2023-07-29T06:24:26;17.50;99.90
4643;DHT22;2334;48.710;9.622;2023-07-29T06:26:53;17.50;99.90
4643;DHT22;2334;48.710;9.622;2023-07-29T06:29:20;17.50;99.90
4643;DHT22;2334;48.710;9.622;2023-07-29T06:31:48;17.60;99.90
4643;DHT22;2334;48.710;9.622;2023-07-29T06:34:16;17.70;99.90
4643;DHT22;2334;48.710;9.622;2023-07-29T06:36:44;17.80;99.90
4643;DHT22;2334;48.710;9.622;2023-07-29T06:39:11;17.80;99.90
4643;DHT22;2334;48.710;9.622;2023-07-29T06:41:38;17.90;99.90
4643;DHT22;2334;48.710;9.622;2023-07-29T06:44:04;18.10;99.90
4643;DHT22;2334;48.710;9.622;2023-07-29T06:46:31;18.20;99.90
4643;DHT22;2334;48.710;9.622;2023-07-29T06:49:00;18.30;99.90
4643;DHT22;2334;48.710;9.622;2023-07-29T06:51:27;18.30;99.90
4643;DHT22;2334;48.710;9.622;2023-07-29T06:53:55;18.50;99.90
4643;DHT22;2334;48.710;9.622;2023-07-29T06:56:21;18.50;99.90
4643;DHT22;2334;48.710;9.622;2023-07-29T06:58:48;18.60;99.90
4643;DHT22;2334;48.710;9.622;2023-07-29T07:01:15;18.70;99.90
4643;DHT22;2334;48.710;9.622;2023-07-29T07:03:42;18.70;99.90
4643;DHT22;2334;48.710;9.622;2023-07-29T07:06:12;18.60;99.90
4643;DHT22;2334;48.710;9.622;2023-07-29T07:08:39;18.60;99.90
4643;DHT22;2334;48.710;9.622;2023-07-29T07:11:07;18.60;99.90
4643;DHT22;2334;48.710;9.622;2023-07-29T07:13:34;18.60;99.90
4643;DHT22;2334;48.710;9.622;2023-07-29T07:16:01;18.60;99.90
4643;DHT22;2334;48.710;9.622;2023-07-29T07:18:28;18.60;99.90
4643;DHT22;2334;48.710;9.622;2023-07-29T07:20:55;18.60;99.90
4643;DHT22;2334;48.710;9.622;2023-07-29T07:23:23;18.60;99.90
4643;DHT22;2334;48.710;9.622;2023-07-29T07:25:50;18.50;99.90
4643;DHT22;2334;48.710;9.622;2023-07-29T07:28:16;18.40;99.90
4643;DHT22;2334;48.710;9.622;2023-07-29T07:30:43;18.40;99.90
4643;DHT22;2334;48.710;9.622;2023-07-29T07:33:10;18.30;99.90
4643;DHT22;2334;48.710;9.622;2023-07-29T07:35:37;18.20;99.90
4643;DHT22;2334;48.710;9.622;2023-07-29T07:38:04;18.20;99.90
4643;DHT22;2334;48.710;9.622;2023-07-29T07:40:34;18.00;99.90
4643;DHT22;2334;48.710;9.622;2023-07-29T07:43:01;17.90;99.90
4643;DHT22;2334;48.710;9.622;2023-07-29T07:45:28;17.80;99.90
4643;DHT22;2334;48.710;9.622;2023-07-29T07:47:55;17.80;99.90
4643;DHT22;2334;48.710;9.622;2023-07-29T07:50:22;17.80;99.90
4643;DHT22;2334;48.710;9.622;2023-07-29T07:52:50;17.90;99.90
4643;DHT22;2334;48.710;9.622;2023-07-29T07:55:17;17.90;99.90
4643;DHT22;2334;48.710;9.622;2023-07-29T07:57:45;17.90;99.90
4643;DHT22;2334;48.710;9.622;2023-07-29T08:00:13;17.90;99.90
4643;DHT22;2334;48.710;9.622;2023-07-29T08:02:41;18.00;99.90
4643;DHT22;2334;48.710;9.622;2023-07-29T08:05:08;18.10;99.90
4643;DHT22;2334;48.710;9.622;2023-07-29T08:07:35;18.20;99.90
4643;DHT22;2334;48.710;9.622;2023-07-29T08:10:02;18.40;99.90
4643;DHT22;2334;48.710;9.622;2023-07-29T08:12:29;18.40;99.90
4643;DHT22;2334;48.710;9.622;2023-07-29T08:14:57;18.50;99.90
4643;DHT22;2334;48.710;9.622;2023-07-29T08:17:24;18.60;99.90
4643;DHT22;2334;48.710;9.622;2023-07-29T08:19:51;18.70;99.90
4643;DHT22;2334;48.710;9.622;2023-07-29T08:22:18;18.80;99.90
4643;DHT22;2334;48.710;9.622;2023-07-29T08:24:46;18.80;99.90
4643;DHT22;2334;48.710;9.622;2023-07-29T08:27:12;18.80;99.90
4643;DHT22;2334;48.710;9.622;2023-07-29T08:29:39;18.80;99.90
4643;DHT22;2334;48.710;9.622;2023-07-29T08:32:08;18.80;99.90
4643;DHT22;2334;48.710;9.622;2023-07-29T08:34:34;18.90;99.90
4643;DHT22;2334;48.710;9.622;2023-07-29T08:37:02;19.00;99.90
4643;DHT22;2334;48.710;9.622;2023-07-29T08:39:28;19.00;99.90
4643;DHT22;2334;48.710;9.622;2023-07-29T08:42:00;19.20;99.90
4643;DHT22;2334;48.710;9.622;2023-07-29T08:44:35;19.30;99.90
4643;DHT22;2334;48.710;9.622;2023-07-29T08:47:02;19.40;99.90
4643;DHT22;2334;48.710;9.622;2023-07-29T08:49:31;19.40;99.90
4643;DHT22;2334;48.710;9.622;2023-07-29T08:51:59;19.40;99.90
4643;DHT22;2334;48.710;9.622;2023-07-29T08:54:26;19.50;99.90
4643;DHT22;2334;48.710;9.622;2023-07-29T08:56:54;19.60;99.90
4643;DHT22;2334;48.710;9.622;2023-07-29T08:59:21;19.50;99.90
4643;DHT22;2334;48.710;9.622;2023-07-29T09:01:48;19.60;99.90
4643;DHT22;2334;48.710;9.622;2023-07-29T09:04:15;19.60;99.90
4643;DHT22;2334;48.710;9.622;2023-07-29T09:06:45;19.80;99.90
4643;DHT22;2334;48.710;9.622;2023-07-29T09:09:13;19.90;99.90
4643;DHT22;2334;48.710;9.622;2023-07-29T09:11:39;20.10;99.90
4643;DHT22;2334;48.710;9.622;2023-07-29T09:14:06;20.30;99.90
4643;DHT22;2334;48.710;9.622;2023-07-29T09:16:33;20.50;99.90
4643;DHT22;2334;48.710;9.622;2023-07-29T09:19:01;20.70;99.90
4643;DHT22;2334;48.710;9.622;2023-07-29T09:21:29;20.70;99.90
4643;DHT22;2334;48.710;9.622;2023-07-29T09:24:02;20.80;99.90
4643;DHT22;2334;48.710;9.622;2023-07-29T09:26:30;20.80;99.90
4643;DHT22;2334;48.710;9.622;2023-07-29T09:28:58;20.90;99.90
4643;DHT22;2334;48.710;9.622;2023-07-29T09:31:27;20.90;99.90
4643;DHT22;2334;48.710;9.622;2023-07-29T09:33:56;20.90;99.90
4643;DHT22;2334;48.710;9.622;2023-07-29T09:36:23;20.90;99.90
4643;DHT22;2334;48.710;9.622;2023-07-29T09:38:53;21.10;99.90
4643;DHT22;2334;48.710;9.622;2023-07-29T09:41:23;21.20;99.90
4643;DHT22;2334;48.710;9.622;2023-07-29T09:43:56;21.30;99.90
4643;DHT22;2334;48.710;9.622;2023-07-29T09:46:24;21.70;99.90
4643;DHT22;2334;48.710;9.622;2023-07-29T09:48:53;22.00;99.90
4643;DHT22;2334;48.710;9.622;2023-07-29T09:51:21;22.40;99.90
4643;DHT22;2334;48.710;9.622;2023-07-29T09:53:49;22.90;99.90
4643;DHT22;2334;48.710;9.622;2023-07-29T09:56:16;23.10;99.90
4643;DHT22;2334;48.710;9.622;2023-07-29T09:58:45;22.90;99.90
4643;DHT22;2334;48.710;9.622;2023-07-29T10:01:12;22.90;99.90
4643;DHT22;2334;48.710;9.622;2023-07-29T10:03:39;23.10;99.90
4643;DHT22;2334;48.710;9.622;2023-07-29T10:06:07;23.40;99.90
4643;DHT22;2334;48.710;9.622;2023-07-29T10:08:34;23.40;99.90
4643;DHT22;2334;48.710;9.622;2023-07-29T10:11:05;23.60;99.90
4643;DHT22;2334;48.710;9.622;2023-07-29T10:13:34;23.50;99.90
4643;DHT22;2334;48.710;9.622;2023-07-29T10:16:03;23.60;99.90
4643;DHT22;2334;48.710;9.622;2023-07-29T10:18:31;23.60;99.90
4643;DHT22;2334;48.710;9.622;2023-07-29T10:20:59;23.80;99.90
4643;DHT22;2334;48.710;9.622;2023-07-29T10:23:27;24.00;99.90
4643;DHT22;2334;48.710;9.622;2023-07-29T10:26:01;24.00;99.90
4643;DHT22;2334;48.710;9.622;2023-07-29T10:28:30;24.30;99.90
4643;DHT22;2334;48.710;9.622;2023-07-29T10:30:59;24.00;99.90
4643;DHT22;2334;48.710;9.622;2023-07-29T10:33:27;23.90;99.90
4643;DHT22;2334;48.710;9.622;2023-07-29T10:35:55;24.10;99.90
4643;DHT22;2334;48.710;9.622;2023-07-29T10:38:22;24.20;99.90
4643;DHT22;2334;48.710;9.622;2023-07-29T10:40:51;24.60;99.90
4643;DHT22;2334;48.710;9.622;2023-07-29T10:43:23;24.90;99.90
4643;DHT22;2334;48.710;9.622;2023-07-29T10:45:50;25.10;99.90
4643;DHT22;2334;48.710;9.622;2023-07-29T10:48:44;25.40;99.90
4643;DHT22;2334;48.710;9.622;2023-07-29T10:51:25;25.50;99.90
4643;DHT22;2334;48.710;9.622;2023-07-29T10:53:53;25.30;99.90
4643;DHT22;2334;48.710;9.622;2023-07-29T10:56:28;25.30;99.90
4643;DHT22;2334;48.710;9.622;2023-07-29T10:58:56;25.10;99.90
4643;DHT22;2334;48.710;9.622;2023-07-29T11:01:28;24.90;99.90
4643;DHT22;2334;48.710;9.622;2023-07-29T11:04:45;24.90;99.90
4643;DHT22;2334;48.710;9.622;2023-07-29T11:07:22;24.90;99.90
4643;DHT22;2334;48.710;9.622;2023-07-29T11:09:54;25.00;99.90
4643;DHT22;2334;48.710;9.622;2023-07-29T11:12:51;24.80;99.90
4643;DHT22;2334;48.710;9.622;2023-07-29T11:15:21;24.60;99.90
4643;DHT22;2334;48.710;9.622;2023-07-29T11:17:50;24.70;99.90
4643;DHT22;2334;48.710;9.622;2023-07-29T11:20:21;24.80;99.90
4643;DHT22;2334;48.710;9.622;2023-07-29T11:22:48;25.10;99.90
4643;DHT22;2334;48.710;9.622;2023-07-29T11:25:16;25.40;99.90
4643;DHT22;2334;48.710;9.622;2023-07-29T11:27:44;25.70;99.90
4643;DHT22;2334;48.710;9.622;2023-07-29T11:30:12;25.40;99.90
4643;DHT22;2334;48.710;9.622;2023-07-29T11:32:41;25.20;99.90
4643;DHT22;2334;48.710;9.622;2023-07-29T11:35:09;25.30;99.90
4643;DHT22;2334;48.710;9.622;2023-07-29T11:37:38;25.20;99.90
4643;DHT22;2334;48.710;9.622;2023-07-29T11:40:06;25.10;99.90
4643;DHT22;2334;48.710;9.622;2023-07-29T11:42:36;25.10;99.90
4643;DHT22;2334;48.710;9.622;2023-07-29T11:45:04;25.00;99.90
4643;DHT22;2334;48.710;9.622;2023-07-29T11:47:32;24.90;99.90
4643;DHT22;2334;48.710;9.622;2023-07-29T11:50:01;24.60;99.90
4643;DHT22;2334;48.710;9.622;2023-07-29T11:52:31;24.60;99.90
4643;DHT22;2334;48.710;9.622;2023-07-29T11:55:01;24.40;99.90
4643;DHT22;2334;48.710;9.622;2023-07-29T11:57:28;24.50;99.90
4643;DHT22;2334;48.710;9.622;2023-07-29T11:59:56;24.50;99.90
4643;DHT22;2334;48.710;9.622;2023-07-29T12:02:24;24.90;99.90
4643;DHT22;2334;48.710;9.622;2023-07-29T12:04:51;25.00;99.90
4643;DHT22;2334;48.710;9.622;2023-07-29T12:07:19;25.20;99.90
4643;DHT22;2334;48.710;9.622;2023-07-29T12:09:46;25.40;99.90
4643;DHT22;2334;48.710;9.622;2023-07-29T12:12:15;25.50;99.90
4643;DHT22;2334;48.710;9.622;2023-07-29T12:14:44;25.70;99.90
4643;DHT22;2334;48.710;9.622;2023-07-29T12:17:12;25.80;99.90
4643;DHT22;2334;48.710;9.622;2023-07-29T12:19:40;25.80;99.90
4643;DHT22;2334;48.710;9.622;2023-07-29T12:22:08;25.90;99.90
4643;DHT22;2334;48.710;9.622;2023-07-29T12:24:37;26.50;99.90
4643;DHT22;2334;48.710;9.622;2023-07-29T12:27:04;26.60;99.90
4643;DHT22;2334;48.710;9.622;2023-07-29T12:29:40;26.50;99.90
4643;DHT22;2334;48.710;9.622;2023-07-29T12:32:08;26.60;99.90
4643;DHT22;2334;48.710;9.622;2023-07-29T12:34:38;26.30;99.90
4643;DHT22;2334;48.710;9.622;2023-07-29T12:37:06;26.10;99.90
4643;DHT22;2334;48.710;9.622;2023-07-29T12:39:35;25.80;99.90
4643;DHT22;2334;48.710;9.622;2023-07-29T12:42:03;25.50;99.90
4643;DHT22;2334;48.710;9.622;2023-07-29T12:44:33;25.40;99.90
4643;DHT22;2334;48.710;9.622;2023-07-29T12:47:00;25.30;99.90
4643;DHT22;2334;48.710;9.622;2023-07-29T12:49:28;25.40;99.90
4643;DHT22;2334;48.710;9.622;2023-07-29T12:51:55;25.20;99.90
4643;DHT22;2334;48.710;9.622;2023-07-29T12:54:22;25.20;99.90
4643;DHT22;2334;48.710;9.622;2023-07-29T12:56:49;25.20;99.90
4643;DHT22;2334;48.710;9.622;2023-07-29T12:59:16;25.30;99.90
4643;DHT22;2334;48.710;9.622;2023-07-29T13:01:45;25.80;99.90
4643;DHT22;2334;48.710;9.622;2023-07-29T13:04:12;26.10;99.90
4643;DHT22;2334;48.710;9.622;2023-07-29T13:06:39;26.20;99.90
4643;DHT22;2334;48.710;9.622;2023-07-29T13:09:06;26.10;99.90
4643;DHT22;2334;48.710;9.622;2023-07-29T13:11:33;26.00;99.90
4643;DHT22;2334;48.710;9.622;2023-07-29T13:14:00;25.70;99.90
4643;DHT22;2334;48.710;9.622;2023-07-29T13:16:27;25.60;99.90
4643;DHT22;2334;48.710;9.622;2023-07-29T13:18:59;25.60;99.90
4643;DHT22;2334;48.710;9.622;2023-07-29T13:21:26;25.60;99.90
4643;DHT22;2334;48.710;9.622;2023-07-29T13:23:53;25.70;99.90
4643;DHT22;2334;48.710;9.622;2023-07-29T13:26:20;25.80;99.90
4643;DHT22;2334;48.710;9.622;2023-07-29T13:28:47;25.90;99.90
4643;DHT22;2334;48.710;9.622;2023-07-29T13:31:14;26.00;99.90
4643;DHT22;2334;48.710;9.622;2023-07-29T13:33:41;26.10;99.90
4643;DHT22;2334;48.710;9.622;2023-07-29T13:36:10;26.30;99.90
4643;DHT22;2334;48.710;9.622;2023-07-29T13:38:36;26.30;99.90
4643;DHT22;2334;48.710;9.622;2023-07-29T13:41:03;26.40;99.90
4643;DHT22;2334;48.710;9.622;2023-07-29T13:43:31;26.30;99.90
4643;DHT22;2334;48.710;9.622;2023-07-29T13:45:58;26.40;99.90
4643;DHT22;2334;48.710;9.622;2023-07-29T13:48:24;26.50;99.90
4643;DHT22;2334;48.710;9.622;2023-07-29T13:50:51;26.60;99.90
4643;DHT22;2334;48.710;9.622;2023-07-29T13:53:19;26.70;99.90
4643;DHT22;2334;48.710;9.622;2023-07-29T13:55:46;26.80;99.90
4643;DHT22;2334;48.710;9.622;2023-07-29T13:58:13;26.80;99.90
4643;DHT22;2334;48.710;9.622;2023-07-29T14:00:40;26.90;99.90
4643;DHT22;2334;48.710;9.622;2023-07-29T14:03:07;26.70;99.90
4643;DHT22;2334;48.710;9.622;2023-07-29T14:05:34;26.60;99.90
4643;DHT22;2334;48.710;9.622;2023-07-29T14:08:01;26.60;99.90
4643;DHT22;2334;48.710;9.622;2023-07-29T14:10:29;26.60;99.90
4643;DHT22;2334;48.710;9.622;2023-07-29T14:12:56;26.40;99.90
4643;DHT22;2334;48.710;9.622;2023-07-29T14:15:23;26.50;99.90
4643;DHT22;2334;48.710;9.622;2023-07-29T14:17:50;26.40;99.90
4643;DHT22;2334;48.710;9.622;2023-07-29T14:20:17;26.40;99.90
4643;DHT22;2334;48.710;9.622;2023-07-29T14:22:44;26.50;99.90
4643;DHT22;2334;48.710;9.622;2023-07-29T14:25:11;26.80;99.90
4643;DHT22;2334;48.710;9.622;2023-07-29T14:27:40;26.50;99.90
4643;DHT22;2334;48.710;9.622;2023-07-29T14:30:08;26.30;99.90
4643;DHT22;2334;48.710;9.622;2023-07-29T14:32:35;26.30;99.90
4643;DHT22;2334;48.710;9.622;2023-07-29T14:35:03;26.40;99.90
4643;DHT22;2334;48.710;9.622;2023-07-29T14:37:30;26.50;99.90
4643;DHT22;2334;48.710;9.622;2023-07-29T14:39:57;26.60;99.90
4643;DHT22;2334;48.710;9.622;2023-07-29T14:42:24;26.90;99.90
4643;DHT22;2334;48.710;9.622;2023-07-29T14:44:52;27.20;99.90
4643;DHT22;2334;48.710;9.622;2023-07-29T14:47:19;27.20;99.90
4643;DHT22;2334;48.710;9.622;2023-07-29T14:49:46;27.60;99.90
4643;DHT22;2334;48.710;9.622;2023-07-29T14:52:13;28.10;99.90
4643;DHT22;2334;48.710;9.622;2023-07-29T14:54:40;28.60;99.90
4643;DHT22;2334;48.710;9.622;2023-07-29T14:57:10;28.20;99.90
4643;DHT22;2334;48.710;9.622;2023-07-29T14:59:37;27.80;99.90
4643;DHT22;2334;48.710;9.622;2023-07-29T15:02:06;27.80;99.90
4643;DHT22;2334;48.710;9.622;2023-07-29T15:04:32;27.50;99.90
4643;DHT22;2334;48.710;9.622;2023-07-29T15:07:02;27.10;99.90
4643;DHT22;2334;48.710;9.622;2023-07-29T15:09:29;26.70;99.90
4643;DHT22;2334;48.710;9.622;2023-07-29T15:11:59;26.40;99.90
4643;DHT22;2334;48.710;9.622;2023-07-29T15:14:26;26.70;99.90
4643;DHT22;2334;48.710;9.622;2023-07-29T15:16:53;26.70;99.90
4643;DHT22;2334;48.710;9.622;2023-07-29T15:19:21;26.60;99.90
4643;DHT22;2334;48.710;9.622;2023-07-29T15:21:48;26.50;99.90
4643;DHT22;2334;48.710;9.622;2023-07-29T15:24:15;26.30;99.90
4643;DHT22;2334;48.710;9.622;2023-07-29T15:26:43;26.40;99.90
4643;DHT22;2334;48.710;9.622;2023-07-29T15:29:17;26.40;99.90
4643;DHT22;2334;48.710;9.622;2023-07-29T15:31:44;26.20;99.90
4643;DHT22;2334;48.710;9.622;2023-07-29T15:34:11;26.30;99.90
4643;DHT22;2334;48.710;9.622;2023-07-29T15:36:39;26.40;99.90
4643;DHT22;2334;48.710;9.622;2023-07-29T15:39:07;26.40;99.90
4643;DHT22;2334;48.710;9.622;2023-07-29T15:41:34;26.30;99.90
4643;DHT22;2334;48.710;9.622;2023-07-29T15:44:01;26.20;99.90
4643;DHT22;2334;48.710;9.622;2023-07-29T15:46:28;26.20;99.90
4643;DHT22;2334;48.710;9.622;2023-07-29T15:48:55;26.30;99.90
4643;DHT22;2334;48.710;9.622;2023-07-29T15:51:25;26.40;99.90
4643;DHT22;2334;48.710;9.622;2023-07-29T15:53:53;26.20;99.90
4643;DHT22;2334;48.710;9.622;2023-07-29T15:56:20;26.40;99.90
4643;DHT22;2334;48.710;9.622;2023-07-29T15:58:47;26.40;99.90
4643;DHT22;2334;48.710;9.622;2023-07-29T16:01:14;26.70;99.90
4643;DHT22;2334;48.710;9.622;2023-07-29T16:03:41;27.10;99.90
4643;DHT22;2334;48.710;9.622;2023-07-29T16:06:08;27.80;99.90
4643;DHT22;2334;48.710;9.622;2023-07-29T16:08:35;27.70;99.90